createdAt,value
2023-02-02T00:02:02.773Z,101031.06
2023-02-02T00:04:34.353Z,101021.03
2023-02-02T00:07:03.884Z,101025.53
2023-02-02T00:09:31.853Z,101026.34
2023-02-02T00:11:59.617Z,101034.06
2023-02-02T00:14:26.616Z,101025.03
2023-02-02T00:16:57.512Z,101021.72
2023-02-02T00:19:26.750Z,101017.84
2023-02-02T00:21:54.467Z,101018.78
2023-02-02T00:24:21.619Z,101032.69
2023-02-02T00:26:54.972Z,101029.19
2023-02-02T00:29:30.249Z,101034.06
2023-02-02T00:31:56.903Z,101028.53
2023-02-02T00:34:23.818Z,101029.34
2023-02-02T00:36:51.007Z,101022.78
2023-02-02T00:39:21.008Z,101033.31
2023-02-02T00:41:48.127Z,101036.44
2023-02-02T00:44:33.383Z,101025.09
2023-02-02T00:47:00.147Z,101032.31
2023-02-02T00:49:27.183Z,101027.22
2023-02-02T00:51:53.688Z,101024.53
2023-02-02T00:54:20.165Z,101031.44
2023-02-02T00:56:46.629Z,101023.16
2023-02-02T00:59:13.014Z,101035.47
2023-02-02T01:01:39.502Z,101038.22
2023-02-02T01:04:06.069Z,101035.53
2023-02-02T01:06:32.623Z,101037.69
2023-02-02T01:08:59.099Z,101049.31
2023-02-02T01:11:25.929Z,101039.34
2023-02-02T01:13:53.641Z,101052.59
2023-02-02T01:16:22.415Z,101048.31
2023-02-02T01:18:49.977Z,101050.19
2023-02-02T01:21:16.427Z,101055.94
2023-02-02T01:23:42.837Z,101059.88
2023-02-02T01:26:10.978Z,101057.19
2023-02-02T01:28:38.942Z,101057.19
2023-02-02T01:31:11.708Z,101054.28
2023-02-02T01:33:38.525Z,101057.03
2023-02-02T01:36:08.519Z,101053.09
2023-02-02T01:38:35.107Z,101062.72
2023-02-02T01:41:04.558Z,101075.94
2023-02-02T01:43:52.966Z,101068.88
2023-02-02T01:46:26.400Z,101074.47
2023-02-02T01:48:58.679Z,101062.91
2023-02-02T01:51:55.013Z,101071.56
2023-02-02T01:54:31.873Z,101062.91
2023-02-02T01:57:02.770Z,101073.66
2023-02-02T01:59:31.060Z,101073.03
2023-02-02T02:01:57.921Z,101070.72
2023-02-02T02:04:26.628Z,101077.22
2023-02-02T02:06:53.655Z,101075.34
2023-02-02T02:09:20.586Z,101085.28
2023-02-02T02:11:46.994Z,101086.91
2023-02-02T02:14:33.801Z,101094.56
2023-02-02T02:17:03.177Z,101100.84
2023-02-02T02:20:19.754Z,101094.84
2023-02-02T02:23:39.155Z,101096.31
2023-02-02T02:26:43.242Z,101105.06
2023-02-02T02:29:47.827Z,101103.63
2023-02-02T02:32:17.376Z,101109.66
2023-02-02T02:35:09.564Z,101115.69
2023-02-02T02:37:45.113Z,101108.34
2023-02-02T02:40:21.677Z,101124.69
2023-02-02T02:42:55.080Z,101123.38
2023-02-02T02:45:25.400Z,101127.31
2023-02-02T02:47:52.820Z,101123.13
2023-02-02T02:50:20.511Z,101125.81
2023-02-02T02:52:49.403Z,101139.25
2023-02-02T02:55:16.151Z,101137.00
2023-02-02T02:58:01.674Z,101133.81
2023-02-02T03:00:48.064Z,101144.84
2023-02-02T03:03:29.272Z,101142.75
2023-02-02T03:05:55.887Z,101144.63
2023-02-02T03:08:44.067Z,101147.09
2023-02-02T03:11:12.641Z,101147.38
2023-02-02T03:13:40.502Z,101151.94
2023-02-02T03:16:07.263Z,101150.66
2023-02-02T03:18:34.254Z,101153.97
2023-02-02T03:21:01.261Z,101159.78
2023-02-02T03:23:28.107Z,101152.09
2023-02-02T03:25:55.546Z,101151.69
2023-02-02T03:28:23.583Z,101157.31
2023-02-02T03:30:51.969Z,101160.81
2023-02-02T03:33:18.939Z,101159.16
2023-02-02T03:35:45.783Z,101167.75
2023-02-02T03:38:12.698Z,101162.25
2023-02-02T03:40:39.800Z,101168.06
2023-02-02T03:43:06.290Z,101175.88
2023-02-02T03:45:35.460Z,101181.72
2023-02-02T03:48:05.825Z,101187.69
2023-02-02T03:50:33.222Z,101187.91
2023-02-02T03:53:00.315Z,101189.16
2023-02-02T03:55:27.318Z,101189.53
2023-02-02T03:57:53.858Z,101203.59
2023-02-02T04:00:20.801Z,101193.75
2023-02-02T04:02:47.279Z,101204.59
2023-02-02T04:05:13.742Z,101212.09
2023-02-02T04:07:40.156Z,101213.75
2023-02-02T04:10:06.745Z,101209.16
2023-02-02T04:12:33.158Z,101213.31
2023-02-02T04:14:59.603Z,101214.78
2023-02-02T04:17:26.125Z,101217.31
2023-02-02T04:19:57.977Z,101228.06
2023-02-02T04:22:26.099Z,101218.72
2023-02-02T04:24:52.896Z,101229.25
2023-02-02T04:27:19.377Z,101233.41
2023-02-02T04:29:45.787Z,101226.75
2023-02-02T04:32:14.900Z,101226.44
2023-02-02T04:34:41.334Z,101233.69
2023-02-02T04:37:07.739Z,101228.31
2023-02-02T04:39:34.149Z,101233.84
2023-02-02T04:42:00.672Z,101231.16
2023-02-02T04:44:27.228Z,101231.38
2023-02-02T04:46:53.660Z,101232.44
2023-02-02T04:49:20.227Z,101238.66
2023-02-02T04:51:46.614Z,101230.19
2023-02-02T04:54:13.275Z,101231.03
2023-02-02T04:56:39.662Z,101236.81
2023-02-02T04:59:06.085Z,101223.00
2023-02-02T05:01:33.054Z,101232.94
2023-02-02T05:03:59.484Z,101232.47
2023-02-02T05:06:26.264Z,101237.19
2023-02-02T05:08:53.590Z,101231.84
2023-02-02T05:11:22.173Z,101244.22
2023-02-02T05:13:53.055Z,101239.69
2023-02-02T05:16:21.522Z,101236.41
2023-02-02T05:18:54.057Z,101237.81
2023-02-02T05:21:21.273Z,101236.00
2023-02-02T05:23:48.399Z,101240.94
2023-02-02T05:26:22.267Z,101237.78
2023-02-02T05:28:49.592Z,101237.44
2023-02-02T05:31:16.409Z,101250.69
2023-02-02T05:33:42.923Z,101246.88
2023-02-02T05:36:09.839Z,101255.59
2023-02-02T05:38:36.591Z,101256.19
2023-02-02T05:41:06.592Z,101254.25
2023-02-02T05:43:33.440Z,101254.88
2023-02-02T05:46:00.118Z,101253.25
2023-02-02T05:48:27.161Z,101253.84
2023-02-02T05:51:15.871Z,101261.47
2023-02-02T05:53:44.861Z,101258.59
2023-02-02T05:56:12.251Z,101259.19
2023-02-02T05:58:39.325Z,101263.06
2023-02-02T06:01:05.754Z,101262.47
2023-02-02T06:03:32.279Z,101261.75
2023-02-02T06:05:58.979Z,101260.16
2023-02-02T06:08:25.450Z,101268.63
2023-02-02T06:10:51.895Z,101276.69
2023-02-02T06:13:18.355Z,101270.72
2023-02-02T06:15:44.847Z,101281.41
2023-02-02T06:18:11.283Z,101287.06
2023-02-02T06:20:38.063Z,101279.38
2023-02-02T06:23:05.069Z,101287.56
2023-02-02T06:25:32.003Z,101284.94
2023-02-02T06:27:59.685Z,101285.09
2023-02-02T06:30:27.135Z,101294.84
2023-02-02T06:32:54.081Z,101293.56
2023-02-02T06:35:20.579Z,101301.50
2023-02-02T06:37:47.119Z,101302.72
2023-02-02T06:40:13.759Z,101299.88
2023-02-02T06:42:40.848Z,101307.69
2023-02-02T06:45:07.844Z,101310.78
2023-02-02T06:47:35.326Z,101304.53
2023-02-02T06:50:01.779Z,101312.13
2023-02-02T06:52:28.301Z,101311.81
2023-02-02T06:54:55.258Z,101305.13
2023-02-02T06:57:21.704Z,101315.91
2023-02-02T06:59:48.103Z,101321.13
2023-02-02T07:02:14.510Z,101319.28
2023-02-02T07:04:40.936Z,101316.56
2023-02-02T07:07:07.332Z,101323.63
2023-02-02T07:09:34.913Z,101320.88
2023-02-02T07:12:01.568Z,101323.19
2023-02-02T07:14:28.064Z,101327.88
2023-02-02T07:16:54.784Z,101333.91
2023-02-02T07:19:21.353Z,101335.19
2023-02-02T07:21:47.754Z,101338.53
2023-02-02T07:24:14.195Z,101341.16
2023-02-02T07:26:40.845Z,101339.97
2023-02-02T07:29:07.689Z,101348.47
2023-02-02T07:31:36.379Z,101349.88
2023-02-02T07:34:03.706Z,101343.59
2023-02-02T07:36:30.262Z,101355.44
2023-02-02T07:39:01.964Z,101349.88
2023-02-02T07:41:28.416Z,101354.19
2023-02-02T07:43:55.403Z,101365.44
2023-02-02T07:46:22.157Z,101356.88
2023-02-02T07:48:48.753Z,101360.84
2023-02-02T07:51:17.400Z,101360.25
2023-02-02T07:53:49.920Z,101373.44
2023-02-02T07:56:19.151Z,101376.38
2023-02-02T07:58:45.664Z,101379.84
2023-02-02T08:01:14.632Z,101382.41
2023-02-02T08:03:42.810Z,101382.19
2023-02-02T08:06:23.930Z,101393.25
2023-02-02T08:08:50.872Z,101389.31
2023-02-02T08:11:20.738Z,101391.91
2023-02-02T08:13:52.362Z,101398.94
2023-02-02T08:16:19.992Z,101404.75
2023-02-02T08:18:46.992Z,101415.81
2023-02-02T08:21:13.813Z,101420.59
2023-02-02T08:23:41.310Z,101421.22
2023-02-02T08:26:13.903Z,101431.75
2023-02-02T08:28:42.365Z,101427.34
2023-02-02T08:31:15.641Z,101426.75
2023-02-02T08:33:42.364Z,101430.66
2023-02-02T08:36:13.408Z,101435.66
2023-02-02T08:38:40.335Z,101430.22
2023-02-02T08:41:08.668Z,101436.25
2023-02-02T08:43:36.011Z,101434.41
2023-02-02T08:46:05.532Z,101437.31
2023-02-02T08:48:32.481Z,101437.25
2023-02-02T08:50:59.342Z,101446.38
2023-02-02T08:53:26.686Z,101453.75
2023-02-02T08:55:59.912Z,101451.13
2023-02-02T08:58:26.999Z,101459.34
2023-02-02T09:00:53.775Z,101461.19
2023-02-02T09:03:20.813Z,101457.06
2023-02-02T09:05:47.591Z,101465.31
2023-02-02T09:08:14.033Z,101463.94
2023-02-02T09:10:40.459Z,101464.97
2023-02-02T09:13:06.908Z,101468.25
2023-02-02T09:15:33.301Z,101463.66
2023-02-02T09:17:59.696Z,101482.34
2023-02-02T09:20:26.491Z,101476.50
2023-02-02T09:22:56.091Z,101485.94
2023-02-02T09:25:25.291Z,101491.38
2023-02-02T09:27:51.884Z,101494.41
2023-02-02T09:30:19.041Z,101497.66
2023-02-02T09:32:49.115Z,101501.03
2023-02-02T09:35:15.583Z,101500.19
2023-02-02T09:37:44.109Z,101506.63
2023-02-02T09:40:17.649Z,101506.22
2023-02-02T09:42:56.337Z,101519.22
2023-02-02T09:45:43.277Z,101522.06
2023-02-02T09:48:24.296Z,101524.78
2023-02-02T09:51:00.561Z,101518.31
2023-02-02T09:53:55.235Z,101527.38
2023-02-02T09:56:38.093Z,101521.75
2023-02-02T09:59:19.394Z,101523.81
2023-02-02T10:01:55.464Z,101529.19
2023-02-02T10:04:28.095Z,101523.81
2023-02-02T10:06:58.234Z,101523.09
2023-02-02T10:09:41.902Z,101520.56
2023-02-02T10:12:32.938Z,101534.19
2023-02-02T10:15:17.481Z,101540.88
2023-02-02T10:17:54.168Z,101545.59
2023-02-02T10:20:58.930Z,101542.06
2023-02-02T10:23:41.600Z,101547.53
2023-02-02T10:26:36.654Z,101552.66
2023-02-02T10:29:11.956Z,101554.53
2023-02-02T10:31:44.154Z,101553.50
2023-02-02T10:34:38.005Z,101555.44
2023-02-02T10:37:16.902Z,101566.78
2023-02-02T10:39:55.522Z,101565.06
2023-02-02T10:43:11.361Z,101568.78
2023-02-02T10:45:41.461Z,101573.09
2023-02-02T10:48:20.807Z,101571.06
2023-02-02T10:50:51.858Z,101571.06
2023-02-02T10:53:19.183Z,101561.69
2023-02-02T10:56:11.994Z,101568.09
2023-02-02T10:58:52.006Z,101565.00
2023-02-02T11:01:22.527Z,101579.78
2023-02-02T11:04:09.630Z,101583.28
2023-02-02T11:06:52.269Z,101596.34
2023-02-02T11:09:25.581Z,101584.59
2023-02-02T11:11:57.570Z,101590.28
2023-02-02T11:14:46.984Z,101603.13
2023-02-02T11:17:22.133Z,101597.41
2023-02-02T11:19:49.844Z,101588.47
2023-02-02T11:22:25.616Z,101600.28
2023-02-02T11:24:54.377Z,101590.03
2023-02-02T11:27:32.612Z,101599.06
2023-02-02T11:30:00.977Z,101597.56
2023-02-02T11:32:33.823Z,101599.16
2023-02-02T11:35:06.495Z,101609.41
2023-02-02T11:37:35.739Z,101601.88
2023-02-02T11:40:29.004Z,101595.63
2023-02-02T11:42:58.719Z,101607.03
2023-02-02T11:45:40.866Z,101608.34
2023-02-02T11:48:18.966Z,101605.94
2023-02-02T11:50:51.155Z,101607.63
2023-02-02T11:53:48.255Z,101612.16
2023-02-02T11:56:26.717Z,101609.16
2023-02-02T11:58:56.574Z,101601.06
2023-02-02T12:01:25.912Z,101610.13
2023-02-02T12:03:54.900Z,101606.91
2023-02-02T12:06:26.776Z,101614.72
2023-02-02T12:08:58.252Z,101612.16
2023-02-02T12:11:37.180Z,101614.13
2023-02-02T12:14:28.762Z,101611.84
2023-02-02T12:17:19.672Z,101609.75
2023-02-02T12:19:55.566Z,101614.72
2023-02-02T12:22:32.411Z,101611.78
2023-02-02T12:25:38.945Z,101612.66
2023-02-02T12:28:17.358Z,101613.97
2023-02-02T12:30:56.402Z,101615.22
2023-02-02T12:33:34.729Z,101618.78
2023-02-02T12:36:28.522Z,101614.56
2023-02-02T12:39:26.285Z,101614.56
2023-02-02T12:42:15.985Z,101615.44
2023-02-02T12:45:00.645Z,101616.00
2023-02-02T12:47:34.264Z,101607.66
2023-02-02T12:50:21.030Z,101612.22
2023-02-02T12:53:12.068Z,101611.03
2023-02-02T12:56:09.098Z,101616.66
2023-02-02T12:58:54.680Z,101614.56
2023-02-02T13:01:30.253Z,101616.28
2023-02-02T13:04:14.944Z,101604.50
2023-02-02T13:07:00.251Z,101604.13
2023-02-02T13:09:44.813Z,101620.38
2023-02-02T13:12:14.567Z,101616.50
2023-02-02T13:14:46.727Z,101612.06
2023-02-02T13:17:20.035Z,101616.94
2023-02-02T13:19:53.685Z,101615.69
2023-02-02T13:22:26.854Z,101603.50
2023-02-02T13:24:58.967Z,101603.50
2023-02-02T13:27:28.927Z,101615.38
2023-02-02T13:30:22.560Z,101606.88
2023-02-02T13:32:53.143Z,101608.69
2023-02-02T13:35:25.558Z,101612.59
2023-02-02T13:38:31.201Z,101621.97
2023-02-02T13:41:03.803Z,101618.94
2023-02-02T13:43:42.978Z,101629.94
2023-02-02T13:46:23.564Z,101618.44
2023-02-02T13:49:18.758Z,101638.19
2023-02-02T13:51:50.384Z,101627.00
2023-02-02T13:54:41.981Z,101634.03
2023-02-02T13:57:33.555Z,101636.06
2023-02-02T14:00:17.029Z,101634.50
2023-02-02T14:02:47.907Z,101650.44
2023-02-02T14:05:21.947Z,101655.66
2023-02-02T14:07:49.267Z,101655.50
2023-02-02T14:10:21.744Z,101655.66
2023-02-02T14:12:48.557Z,101662.00
2023-02-02T14:15:15.705Z,101659.72
2023-02-02T14:17:42.003Z,101660.56
2023-02-02T14:20:40.452Z,101661.75
2023-02-02T14:23:50.830Z,101662.28
2023-02-02T14:26:21.769Z,101668.72
2023-02-02T14:28:50.017Z,101667.75
2023-02-02T14:31:40.447Z,101668.81
2023-02-02T14:34:28.536Z,101668.56
2023-02-02T14:37:26.730Z,101677.81
2023-02-02T14:40:06.117Z,101679.75
2023-02-02T14:43:09.820Z,101672.50
2023-02-02T14:45:50.236Z,101681.34
2023-02-02T14:48:22.420Z,101670.16
2023-02-02T14:51:01.696Z,101682.09
2023-02-02T14:53:30.825Z,101685.44
2023-02-02T14:56:05.416Z,101686.38
2023-02-02T14:58:37.191Z,101688.81
2023-02-02T15:01:09.910Z,101686.56
2023-02-02T15:03:50.714Z,101696.31
2023-02-02T15:06:36.754Z,101705.69
2023-02-02T15:09:28.360Z,101703.38
2023-02-02T15:12:04.210Z,101705.19
2023-02-02T15:14:55.732Z,101708.41
2023-02-02T15:17:25.560Z,101713.50
2023-02-02T15:20:21.312Z,101718.25
2023-02-02T15:22:47.725Z,101724.22
2023-02-02T15:25:35.758Z,101730.59
2023-02-02T15:28:17.458Z,101722.94
2023-02-02T15:30:48.332Z,101724.72
2023-02-02T15:33:29.827Z,101734.34
2023-02-02T15:35:59.744Z,101733.09
2023-02-02T15:38:34.640Z,101731.63
2023-02-02T15:41:18.396Z,101738.75
2023-02-02T15:43:45.278Z,101736.53
2023-02-02T15:46:16.254Z,101732.47
2023-02-02T15:48:43.733Z,101737.28
2023-02-02T15:51:17.480Z,101737.13
2023-02-02T15:53:43.808Z,101739.25
2023-02-02T15:56:24.360Z,101744.06
2023-02-02T15:58:54.578Z,101747.41
2023-02-02T16:01:23.843Z,101765.09
2023-02-02T16:04:08.649Z,101764.41
2023-02-02T16:06:35.581Z,101778.19
2023-02-02T16:09:03.764Z,101778.44
2023-02-02T16:11:30.458Z,101782.09
2023-02-02T16:14:03.199Z,101786.53
2023-02-02T16:16:34.330Z,101794.31
2023-02-02T16:19:06.398Z,101797.09
2023-02-02T16:21:34.139Z,101798.59
2023-02-02T16:24:02.796Z,101811.06
2023-02-02T16:26:31.334Z,101811.09
2023-02-02T16:28:59.006Z,101810.03
2023-02-02T16:31:26.856Z,101810.47
2023-02-02T16:33:53.311Z,101813.81
2023-02-02T16:36:26.888Z,101818.16
2023-02-02T16:38:55.085Z,101822.72
2023-02-02T16:41:28.064Z,101827.09
2023-02-02T16:43:55.133Z,101816.75
2023-02-02T16:46:45.618Z,101819.88
2023-02-02T16:49:18.879Z,101821.09
2023-02-02T16:51:48.438Z,101815.31
2023-02-02T16:54:21.127Z,101805.59
2023-02-02T16:56:51.525Z,101807.63
2023-02-02T16:59:37.608Z,101807.44
2023-02-02T17:02:18.583Z,101810.78
2023-02-02T17:04:49.588Z,101809.72
2023-02-02T17:07:17.113Z,101808.50
2023-02-02T17:09:45.474Z,101818.88
2023-02-02T17:12:34.949Z,101810.53
2023-02-02T17:15:16.971Z,101818.00
2023-02-02T17:17:50.278Z,101818.44
2023-02-02T17:20:17.979Z,101821.75
2023-02-02T17:22:47.448Z,101824.25
2023-02-02T17:25:21.266Z,101817.41
2023-02-02T17:27:47.837Z,101817.41
2023-02-02T17:30:16.589Z,101819.47
2023-02-02T17:32:43.205Z,101816.38
2023-02-02T17:35:24.847Z,101819.69
2023-02-02T17:37:52.692Z,101817.41
2023-02-02T17:40:21.847Z,101822.16
2023-02-02T17:42:51.151Z,101819.47
2023-02-02T17:45:38.542Z,101826.94
2023-02-02T17:48:06.250Z,101817.59
2023-02-02T17:50:33.669Z,101826.28
2023-02-02T17:53:00.127Z,101825.25
2023-02-02T17:55:32.562Z,101822.78
2023-02-02T17:57:58.958Z,101830.66
2023-02-02T18:00:30.002Z,101826.47
2023-02-02T18:03:10.025Z,101826.06
2023-02-02T18:05:37.547Z,101825.44
2023-02-02T18:08:04.105Z,101825.06
2023-02-02T18:10:30.536Z,101824.84
2023-02-02T18:12:57.603Z,101819.88
2023-02-02T18:15:24.403Z,101815.50
2023-02-02T18:17:51.529Z,101815.09
2023-02-02T18:20:19.248Z,101816.38
2023-02-02T18:22:48.188Z,101813.88
2023-02-02T18:25:15.130Z,101809.31
2023-02-02T18:27:41.570Z,101801.66
2023-02-02T18:30:08.727Z,101796.47
2023-02-02T18:32:39.552Z,101795.25
2023-02-02T18:35:08.276Z,101806.00
2023-02-02T18:37:36.495Z,101809.09
2023-02-02T18:40:04.650Z,101809.09
2023-02-02T18:42:32.307Z,101808.09
2023-02-02T18:44:59.951Z,101801.44
2023-02-02T18:47:26.849Z,101802.91
2023-02-02T18:49:53.357Z,101791.50
2023-02-02T18:52:19.829Z,101790.47
2023-02-02T18:54:49.720Z,101796.47
2023-02-02T18:57:17.180Z,101792.94
2023-02-02T18:59:43.947Z,101793.38
2023-02-02T19:02:15.263Z,101789.84
2023-02-02T19:05:05.576Z,101786.56
2023-02-02T19:07:50.958Z,101777.84
2023-02-02T19:10:18.475Z,101781.97
2023-02-02T19:13:15.318Z,101776.59
2023-02-02T19:15:42.318Z,101778.47
2023-02-02T19:18:17.549Z,101782.19
2023-02-02T19:20:44.591Z,101769.97
2023-02-02T19:23:14.250Z,101771.84
2023-02-02T19:25:42.189Z,101776.19
2023-02-02T19:28:25.276Z,101762.31
2023-02-02T19:30:53.379Z,101759.41
2023-02-02T19:33:20.963Z,101763.97
2023-02-02T19:35:51.549Z,101758.59
2023-02-02T19:38:20.426Z,101764.38
2023-02-02T19:40:47.860Z,101758.78
2023-02-02T19:43:27.754Z,101762.94
2023-02-02T19:45:55.310Z,101749.09
2023-02-02T19:48:34.552Z,101749.69
2023-02-02T19:51:01.038Z,101747.22
2023-02-02T19:53:37.890Z,101737.25
2023-02-02T19:56:24.622Z,101732.09
2023-02-02T19:58:51.024Z,101733.97
2023-02-02T20:01:21.280Z,101724.22
2023-02-02T20:03:47.755Z,101716.59
2023-02-02T20:06:30.524Z,101720.91
2023-02-02T20:08:57.247Z,101720.50
2023-02-02T20:11:23.765Z,101718.22
2023-02-02T20:13:51.332Z,101714.50
2023-02-02T20:16:23.929Z,101711.81
2023-02-02T20:18:57.719Z,101696.69
2023-02-02T20:21:45.527Z,101706.03
2023-02-02T20:24:34.810Z,101699.59
2023-02-02T20:27:12.136Z,101693.19
2023-02-02T20:29:42.014Z,101688.00
2023-02-02T20:32:19.255Z,101689.88
2023-02-02T20:34:45.684Z,101688.63
2023-02-02T20:37:12.000Z,101697.09
2023-02-02T20:40:01.123Z,101684.91
2023-02-02T20:42:28.964Z,101692.75
2023-02-02T20:44:56.433Z,101680.72
2023-02-02T20:47:22.859Z,101683.41
2023-02-02T20:49:49.394Z,101678.47
2023-02-02T20:52:23.202Z,101673.91
2023-02-02T20:54:50.583Z,101666.66
2023-02-02T20:57:17.504Z,101661.69
2023-02-02T20:59:44.003Z,101658.38
2023-02-02T21:02:18.770Z,101655.28
2023-02-02T21:04:48.207Z,101651.53
2023-02-02T21:07:16.891Z,101640.97
2023-02-02T21:09:44.503Z,101652.38
2023-02-02T21:12:11.320Z,101643.03
2023-02-02T21:14:38.914Z,101637.41
2023-02-02T21:17:14.775Z,101637.38
2023-02-02T21:19:42.272Z,101641.47
2023-02-02T21:22:08.792Z,101640.97
2023-02-02T21:24:35.313Z,101630.94
2023-02-02T21:27:03.390Z,101634.59
2023-02-02T21:29:31.683Z,101649.69
2023-02-02T21:32:01.369Z,101643.03
2023-02-02T21:34:29.101Z,101640.75
2023-02-02T21:36:58.137Z,101636.13
2023-02-02T21:39:31.686Z,101641.47
2023-02-02T21:42:11.667Z,101633.38
2023-02-02T21:44:49.616Z,101643.75
2023-02-02T21:47:26.533Z,101647.03
2023-02-02T21:49:55.761Z,101647.22
2023-02-02T21:52:22.563Z,101639.72
2023-02-02T21:54:49.287Z,101638.50
2023-02-02T21:57:35.018Z,101639.13
2023-02-02T22:00:38.787Z,101648.13
2023-02-02T22:03:19.794Z,101644.19
2023-02-02T22:05:46.219Z,101635.88
2023-02-02T22:08:25.222Z,101624.66
2023-02-02T22:10:51.887Z,101632.53
2023-02-02T22:13:21.384Z,101627.66
2023-02-02T22:15:50.732Z,101631.56
2023-02-02T22:18:21.623Z,101625.13
2023-02-02T22:20:50.530Z,101633.97
2023-02-02T22:23:22.882Z,101625.94
2023-02-02T22:25:52.958Z,101609.53
2023-02-02T22:28:25.971Z,101618.00
2023-02-02T22:30:54.231Z,101614.38
2023-02-02T22:33:21.922Z,101612.59
2023-02-02T22:35:48.478Z,101604.16
2023-02-02T22:38:20.593Z,101590.88
2023-02-02T22:40:48.309Z,101588.84
2023-02-02T22:43:16.547Z,101582.53
2023-02-02T22:45:44.081Z,101581.72
2023-02-02T22:48:12.015Z,101569.25
2023-02-02T22:50:38.714Z,101581.41
2023-02-02T22:53:05.559Z,101573.91
2023-02-02T22:55:32.794Z,101569.09
2023-02-02T22:57:59.348Z,101561.44
2023-02-02T23:00:29.794Z,101566.63
2023-02-02T23:02:57.057Z,101572.63
2023-02-02T23:05:24.890Z,101565.66
2023-02-02T23:07:52.059Z,101579.00
2023-02-02T23:10:21.107Z,101578.84
2023-02-02T23:12:48.469Z,101585.00
2023-02-02T23:15:16.019Z,101584.31
2023-02-02T23:17:42.759Z,101562.72
2023-02-02T23:20:12.823Z,101558.34
2023-02-02T23:22:39.798Z,101562.28
2023-02-02T23:25:06.958Z,101558.50
2023-02-02T23:27:33.361Z,101550.25
2023-02-02T23:30:00.093Z,101542.19
2023-02-02T23:32:26.560Z,101530.66
2023-02-02T23:34:53.011Z,101525.94
2023-02-02T23:37:19.451Z,101529.63
2023-02-02T23:39:45.878Z,101537.97
2023-02-02T23:42:12.315Z,101549.94
2023-02-02T23:44:38.842Z,101540.81
2023-02-02T23:47:05.765Z,101546.47
2023-02-02T23:49:32.975Z,101547.28
2023-02-02T23:52:00.234Z,101547.38
2023-02-02T23:54:27.945Z,101545.97
2023-02-02T23:56:54.386Z,101537.69
2023-02-02T23:59:20.892Z,101549.09
